sensor_id;sensor_type;location;lat;lon;timestamp;pressure;altitude;pressure_sealevel;temperature;humidity
28456;BME280;15682;56.742;38.866;2023-11-22T00:01:00;99430.0;;;-8.7;93.4
28456;BME280;15682;56.742;38.866;2023-11-22T00:03:00;99430.0;;;-8.8;93.4
28456;BME280;15682;56.742;38.866;2023-11-22T00:04:59;99440.0;;;-8.8;93.4
28456;BME280;15682;56.742;38.866;2023-11-22T00:06:59;99440.0;;;-8.8;94.1
28456;BME280;15682;56.742;38.866;2023-11-22T00:08:59;99440.0;;;-8.8;94.1
28456;BME280;15682;56.742;38.866;2023-11-22T00:10:59;99450.0;;;-8.8;93.4
28456;BME280;15682;56.742;38.866;2023-11-22T00:12:58;99450.0;;;-8.8;93.4
28456;BME280;15682;56.742;38.866;2023-11-22T00:14:58;99450.0;;;-8.9;93.4
28456;BME280;15682;56.742;38.866;2023-11-22T00:16:58;99450.0;;;-8.9;93.7
28456;BME280;15682;56.742;38.866;2023-11-22T00:18:58;99450.0;;;-9.0;93.7
28456;BME280;15682;56.742;38.866;2023-11-22T00:20:57;99450.0;;;-8.8;94.0
28456;BME280;15682;56.742;38.866;2023-11-22T00:22:57;99450.0;;;-8.8;93.3
28456;BME280;15682;56.742;38.866;2023-11-22T00:24:57;99440.0;;;-9.0;93.4
28456;BME280;15682;56.742;38.866;2023-11-22T00:26:57;99440.0;;;-9.0;93.3
28456;BME280;15682;56.742;38.866;2023-11-22T00:28:56;99440.0;;;-9.0;92.7
28456;BME280;15682;56.742;38.866;2023-11-22T00:30:56;99440.0;;;-9.0;92.7
28456;BME280;15682;56.742;38.866;2023-11-22T00:32:56;99440.0;;;-9.0;93.2
28456;BME280;15682;56.742;38.866;2023-11-22T00:34:56;99440.0;;;-8.9;93.2
28456;BME280;15682;56.742;38.866;2023-11-22T00:36:55;99430.0;;;-8.9;93.8
28456;BME280;15682;56.742;38.866;2023-11-22T00:38:55;99430.0;;;-8.9;93.8
28456;BME280;15682;56.742;38.866;2023-11-22T00:40:55;99430.0;;;-8.9;92.9
28456;BME280;15682;56.742;38.866;2023-11-22T00:42:55;99430.0;;;-8.9;92.9
28456;BME280;15682;56.742;38.866;2023-11-22T00:44:54;99430.0;;;-9.1;92.9
28456;BME280;15682;56.742;38.866;2023-11-22T00:46:54;99430.0;;;-9.1;93.5
28456;BME280;15682;56.742;38.866;2023-11-22T00:48:54;99430.0;;;-9.1;94.0
28456;BME280;15682;56.742;38.866;2023-11-22T00:50:54;99430.0;;;-9.1;94.0
28456;BME280;15682;56.742;38.866;2023-11-22T00:52:53;99430.0;;;-9.2;94.0
28456;BME280;15682;56.742;38.866;2023-11-22T00:54:53;99430.0;;;-9.2;94.0
28456;BME280;15682;56.742;38.866;2023-11-22T00:56:53;99430.0;;;-9.2;94.3
28456;BME280;15682;56.742;38.866;2023-11-22T00:58:53;99430.0;;;-9.3;94.3
28456;BME280;15682;56.742;38.866;2023-11-22T01:00:52;99430.0;;;-9.3;94.3
28456;BME280;15682;56.742;38.866;2023-11-22T01:02:52;99440.0;;;-9.3;93.1
28456;BME280;15682;56.742;38.866;2023-11-22T01:04:52;99440.0;;;-9.3;93.8
28456;BME280;15682;56.742;38.866;2023-11-22T01:06:52;99440.0;;;-9.3;94.1
28456;BME280;15682;56.742;38.866;2023-11-22T01:08:51;99440.0;;;-9.3;94.1
28456;BME280;15682;56.742;38.866;2023-11-22T01:10:51;99440.0;;;-9.3;94.1
28456;BME280;15682;56.742;38.866;2023-11-22T01:12:51;99440.0;;;-9.2;94.1
28456;BME280;15682;56.742;38.866;2023-11-22T01:14:51;99440.0;;;-9.3;93.3
28456;BME280;15682;56.742;38.866;2023-11-22T01:16:50;99440.0;;;-9.3;93.6
28456;BME280;15682;56.742;38.866;2023-11-22T01:18:50;99440.0;;;-9.4;93.6
28456;BME280;15682;56.742;38.866;2023-11-22T01:20:50;99440.0;;;-9.4;93.9
28456;BME280;15682;56.742;38.866;2023-11-22T01:22:50;99450.0;;;-9.4;93.4
28456;BME280;15682;56.742;38.866;2023-11-22T01:24:49;99450.0;;;-9.4;93.4
28456;BME280;15682;56.742;38.866;2023-11-22T01:26:49;99450.0;;;-9.4;94.0
28456;BME280;15682;56.742;38.866;2023-11-22T01:28:49;99450.0;;;-9.3;94.1
28456;BME280;15682;56.742;38.866;2023-11-22T01:30:49;99450.0;;;-9.4;93.1
28456;BME280;15682;56.742;38.866;2023-11-22T01:32:48;99450.0;;;-9.4;93.9
28456;BME280;15682;56.742;38.866;2023-11-22T01:34:48;99450.0;;;-9.4;93.1
28456;BME280;15682;56.742;38.866;2023-11-22T01:36:50;99450.0;;;-9.4;92.8
28456;BME280;15682;56.742;38.866;2023-11-22T01:38:48;99450.0;;;-9.4;92.8
28456;BME280;15682;56.742;38.866;2023-11-22T01:40:48;99450.0;;;-9.4;92.8
28456;BME280;15682;56.742;38.866;2023-11-22T01:42:47;99450.0;;;-9.4;93.7
28456;BME280;15682;56.742;38.866;2023-11-22T01:44:47;99450.0;;;-9.5;92.9
28456;BME280;15682;56.742;38.866;2023-11-22T01:46:47;99460.0;;;-9.5;93.4
28456;BME280;15682;56.742;38.866;2023-11-22T01:48:46;99460.0;;;-9.5;93.4
28456;BME280;15682;56.742;38.866;2023-11-22T01:50:46;99460.0;;;-9.5;92.8
28456;BME280;15682;56.742;38.866;2023-11-22T01:52:47;99460.0;;;-9.5;92.8
28456;BME280;15682;56.742;38.866;2023-11-22T01:54:46;99460.0;;;-9.6;93.5
28456;BME280;15682;56.742;38.866;2023-11-22T01:56:45;99460.0;;;-9.6;93.2
28456;BME280;15682;56.742;38.866;2023-11-22T01:58:46;99460.0;;;-9.6;93.0
28456;BME280;15682;56.742;38.866;2023-11-22T02:00:49;99460.0;;;-9.6;93.0
28456;BME280;15682;56.742;38.866;2023-11-22T02:02:45;99460.0;;;-9.6;93.0
28456;BME280;15682;56.742;38.866;2023-11-22T02:04:44;99470.0;;;-9.6;93.0
28456;BME280;15682;56.742;38.866;2023-11-22T02:06:44;99470.0;;;-9.6;93.1
28456;BME280;15682;56.742;38.866;2023-11-22T02:08:44;99470.0;;;-9.4;93.1
28456;BME280;15682;56.742;38.866;2023-11-22T02:10:44;99470.0;;;-9.4;93.1
28456;BME280;15682;56.742;38.866;2023-11-22T02:12:43;99470.0;;;-9.4;93.1
28456;BME280;15682;56.742;38.866;2023-11-22T02:14:43;99470.0;;;-9.4;93.1
28456;BME280;15682;56.742;38.866;2023-11-22T02:16:43;99470.0;;;-9.4;93.7
28456;BME280;15682;56.742;38.866;2023-11-22T02:18:43;99470.0;;;-9.4;93.7
28456;BME280;15682;56.742;38.866;2023-11-22T02:20:42;99470.0;;;-9.4;92.9
28456;BME280;15682;56.742;38.866;2023-11-22T02:22:43;99470.0;;;-9.3;92.9
28456;BME280;15682;56.742;38.866;2023-11-22T02:24:42;99470.0;;;-9.3;92.9
28456;BME280;15682;56.742;38.866;2023-11-22T02:26:44;99470.0;;;-9.3;93.5
28456;BME280;15682;56.742;38.866;2023-11-22T02:28:41;99470.0;;;-9.3;93.5
28456;BME280;15682;56.742;38.866;2023-11-22T02:30:41;99470.0;;;-9.3;93.5
28456;BME280;15682;56.742;38.866;2023-11-22T02:32:41;99470.0;;;-9.3;93.5
28456;BME280;15682;56.742;38.866;2023-11-22T02:34:41;99470.0;;;-9.2;93.5
28456;BME280;15682;56.742;38.866;2023-11-22T02:36:42;99470.0;;;-9.2;93.6
28456;BME280;15682;56.742;38.866;2023-11-22T02:38:40;99470.0;;;-9.2;93.6
28456;BME280;15682;56.742;38.866;2023-11-22T02:40:40;99460.0;;;-9.2;93.6
28456;BME280;15682;56.742;38.866;2023-11-22T02:42:39;99460.0;;;-9.2;93.6
28456;BME280;15682;56.742;38.866;2023-11-22T02:44:39;99450.0;;;-9.3;94.2
28456;BME280;15682;56.742;38.866;2023-11-22T02:46:39;99450.0;;;-9.3;93.8
28456;BME280;15682;56.742;38.866;2023-11-22T02:48:39;99450.0;;;-9.3;93.8
28456;BME280;15682;56.742;38.866;2023-11-22T02:50:38;99450.0;;;-9.4;93.8
28456;BME280;15682;56.742;38.866;2023-11-22T02:52:38;99450.0;;;-9.3;93.8
28456;BME280;15682;56.742;38.866;2023-11-22T02:54:41;99450.0;;;-9.4;93.8
28456;BME280;15682;56.742;38.866;2023-11-22T02:56:38;99450.0;;;-9.4;94.4
28456;BME280;15682;56.742;38.866;2023-11-22T02:58:37;99450.0;;;-9.4;94.4
28456;BME280;15682;56.742;38.866;2023-11-22T03:00:37;99450.0;;;-9.3;94.4
28456;BME280;15682;56.742;38.866;2023-11-22T03:02:37;99450.0;;;-9.3;94.4
28456;BME280;15682;56.742;38.866;2023-11-22T03:04:37;99450.0;;;-9.2;93.7
28456;BME280;15682;56.742;38.866;2023-11-22T03:06:36;99450.0;;;-9.2;93.7
28456;BME280;15682;56.742;38.866;2023-11-22T03:08:36;99450.0;;;-9.2;93.7
28456;BME280;15682;56.742;38.866;2023-11-22T03:10:36;99450.0;;;-9.3;93.7
28456;BME280;15682;56.742;38.866;2023-11-22T03:12:36;99450.0;;;-9.3;93.7
28456;BME280;15682;56.742;38.866;2023-11-22T03:14:36;99450.0;;;-9.1;93.7
28456;BME280;15682;56.742;38.866;2023-11-22T03:16:39;99450.0;;;-9.1;93.7
28456;BME280;15682;56.742;38.866;2023-11-22T03:18:35;99450.0;;;-9.1;93.7
28456;BME280;15682;56.742;38.866;2023-11-22T03:20:35;99450.0;;;-9.1;93.7
28456;BME280;15682;56.742;38.866;2023-11-22T03:22:35;99450.0;;;-9.1;94.2
28456;BME280;15682;56.742;38.866;2023-11-22T03:24:34;99450.0;;;-9.1;94.2
28456;BME280;15682;56.742;38.866;2023-11-22T03:26:34;99450.0;;;-9.0;94.3
28456;BME280;15682;56.742;38.866;2023-11-22T03:28:34;99450.0;;;-9.0;94.3
28456;BME280;15682;56.742;38.866;2023-11-22T03:30:33;99450.0;;;-9.0;94.3
28456;BME280;15682;56.742;38.866;2023-11-22T03:32:33;99450.0;;;-9.1;94.3
28456;BME280;15682;56.742;38.866;2023-11-22T03:34:33;99450.0;;;-9.1;94.3
28456;BME280;15682;56.742;38.866;2023-11-22T03:36:33;99450.0;;;-9.1;94.1
28456;BME280;15682;56.742;38.866;2023-11-22T03:38:33;99430.0;;;-9.0;94.7
28456;BME280;15682;56.742;38.866;2023-11-22T03:40:32;99430.0;;;-9.0;93.7
28456;BME280;15682;56.742;38.866;2023-11-22T03:42:32;99430.0;;;-9.0;93.7
28456;BME280;15682;56.742;38.866;2023-11-22T03:44:32;99430.0;;;-9.0;93.7
28456;BME280;15682;56.742;38.866;2023-11-22T03:46:32;99430.0;;;-9.1;94.5
28456;BME280;15682;56.742;38.866;2023-11-22T03:48:31;99430.0;;;-9.1;95.1
28456;BME280;15682;56.742;38.866;2023-11-22T03:50:31;99430.0;;;-9.1;95.1
28456;BME280;15682;56.742;38.866;2023-11-22T03:52:31;99430.0;;;-9.0;95.1
28456;BME280;15682;56.742;38.866;2023-11-22T03:54:31;99430.0;;;-9.0;95.1
28456;BME280;15682;56.742;38.866;2023-11-22T03:56:31;99430.0;;;-8.8;94.8
28456;BME280;15682;56.742;38.866;2023-11-22T03:58:30;99430.0;;;-9.0;94.8
28456;BME280;15682;56.742;38.866;2023-11-22T04:00:30;99430.0;;;-9.0;94.8
28456;BME280;15682;56.742;38.866;2023-11-22T04:02:30;99430.0;;;-8.8;94.8
28456;BME280;15682;56.742;38.866;2023-11-22T04:04:29;99430.0;;;-8.7;94.8
28456;BME280;15682;56.742;38.866;2023-11-22T04:06:29;99430.0;;;-8.7;95.2
28456;BME280;15682;56.742;38.866;2023-11-22T04:08:29;99430.0;;;-8.8;95.2
28456;BME280;15682;56.742;38.866;2023-11-22T04:10:29;99430.0;;;-9.0;95.2
28456;BME280;15682;56.742;38.866;2023-11-22T04:12:28;99430.0;;;-8.8;95.2
28456;BME280;15682;56.742;38.866;2023-11-22T04:14:28;99430.0;;;-8.8;95.9
28456;BME280;15682;56.742;38.866;2023-11-22T04:16:28;99430.0;;;-8.8;95.4
28456;BME280;15682;56.742;38.866;2023-11-22T04:18:28;99430.0;;;-8.8;95.4
28456;BME280;15682;56.742;38.866;2023-11-22T04:20:27;99430.0;;;-8.8;95.2
28456;BME280;15682;56.742;38.866;2023-11-22T04:22:27;99430.0;;;-8.8;95.8
28456;BME280;15682;56.742;38.866;2023-11-22T04:24:27;99430.0;;;-8.9;95.8
28456;BME280;15682;56.742;38.866;2023-11-22T04:26:27;99430.0;;;-8.9;96.0
28456;BME280;15682;56.742;38.866;2023-11-22T04:28:27;99430.0;;;-8.6;96.0
28456;BME280;15682;56.742;38.866;2023-11-22T04:30:26;99430.0;;;-8.6;96.0
28456;BME280;15682;56.742;38.866;2023-11-22T04:32:26;99430.0;;;-8.6;96.0
28456;BME280;15682;56.742;38.866;2023-11-22T04:34:26;99440.0;;;-8.7;96.0
28456;BME280;15682;56.742;38.866;2023-11-22T04:36:26;99440.0;;;-8.7;95.1
28456;BME280;15682;56.742;38.866;2023-11-22T04:38:25;99440.0;;;-8.5;95.1
28456;BME280;15682;56.742;38.866;2023-11-22T04:40:25;99440.0;;;-8.5;95.1
28456;BME280;15682;56.742;38.866;2023-11-22T04:42:25;99440.0;;;-8.7;95.1
28456;BME280;15682;56.742;38.866;2023-11-22T04:44:25;99440.0;;;-8.7;95.8
28456;BME280;15682;56.742;38.866;2023-11-22T04:46:24;99440.0;;;-8.7;95.7
28456;BME280;15682;56.742;38.866;2023-11-22T04:48:24;99440.0;;;-8.7;95.7
28456;BME280;15682;56.742;38.866;2023-11-22T04:50:24;99440.0;;;-8.7;95.7
28456;BME280;15682;56.742;38.866;2023-11-22T04:52:24;99440.0;;;-8.7;95.7
28456;BME280;15682;56.742;38.866;2023-11-22T04:54:24;99440.0;;;-8.7;95.7
28456;BME280;15682;56.742;38.866;2023-11-22T04:56:23;99440.0;;;-8.5;95.3
28456;BME280;15682;56.742;38.866;2023-11-22T04:58:23;99440.0;;;-8.5;95.3
28456;BME280;15682;56.742;38.866;2023-11-22T05:00:23;99440.0;;;-8.5;95.3
28456;BME280;15682;56.742;38.866;2023-11-22T05:02:23;99440.0;;;-8.5;95.3
28456;BME280;15682;56.742;38.866;2023-11-22T05:04:22;99440.0;;;-8.5;95.3
28456;BME280;15682;56.742;38.866;2023-11-22T05:06:22;99440.0;;;-8.5;95.5
28456;BME280;15682;56.742;38.866;2023-11-22T05:08:22;99440.0;;;-8.4;95.5
28456;BME280;15682;56.742;38.866;2023-11-22T05:10:22;99440.0;;;-8.4;95.3
28456;BME280;15682;56.742;38.866;2023-11-22T05:12:22;99440.0;;;-8.4;95.3
28456;BME280;15682;56.742;38.866;2023-11-22T05:14:21;99450.0;;;-8.4;95.3
28456;BME280;15682;56.742;38.866;2023-11-22T05:16:21;99450.0;;;-8.4;95.4
28456;BME280;15682;56.742;38.866;2023-11-22T05:18:21;99450.0;;;-8.4;95.4
28456;BME280;15682;56.742;38.866;2023-11-22T05:20:21;99450.0;;;-8.4;95.4
28456;BME280;15682;56.742;38.866;2023-11-22T05:22:20;99450.0;;;-8.4;95.4
28456;BME280;15682;56.742;38.866;2023-11-22T05:24:20;99450.0;;;-8.4;95.4
28456;BME280;15682;56.742;38.866;2023-11-22T05:26:20;99450.0;;;-8.4;95.0
28456;BME280;15682;56.742;38.866;2023-11-22T05:28:20;99450.0;;;-8.4;95.0
28456;BME280;15682;56.742;38.866;2023-11-22T05:30:19;99450.0;;;-8.4;95.0
28456;BME280;15682;56.742;38.866;2023-11-22T05:32:19;99450.0;;;-8.4;95.0
28456;BME280;15682;56.742;38.866;2023-11-22T05:34:19;99450.0;;;-8.4;95.0
28456;BME280;15682;56.742;38.866;2023-11-22T05:36:19;99460.0;;;-8.4;95.1
28456;BME280;15682;56.742;38.866;2023-11-22T05:38:19;99460.0;;;-8.4;95.1
28456;BME280;15682;56.742;38.866;2023-11-22T05:40:18;99460.0;;;-8.4;95.1
28456;BME280;15682;56.742;38.866;2023-11-22T05:42:18;99460.0;;;-8.3;95.1
28456;BME280;15682;56.742;38.866;2023-11-22T05:44:18;99460.0;;;-8.2;94.7
28456;BME280;15682;56.742;38.866;2023-11-22T05:46:18;99460.0;;;-8.1;94.7
28456;BME280;15682;56.742;38.866;2023-11-22T05:48:17;99460.0;;;-8.1;95.2
28456;BME280;15682;56.742;38.866;2023-11-22T05:50:17;99460.0;;;-8.1;94.8
28456;BME280;15682;56.742;38.866;2023-11-22T05:52:17;99460.0;;;-8.0;95.4
28456;BME280;15682;56.742;38.866;2023-11-22T05:54:17;99460.0;;;-8.1;94.8
28456;BME280;15682;56.742;38.866;2023-11-22T05:56:17;99460.0;;;-8.1;95.4
28456;BME280;15682;56.742;38.866;2023-11-22T05:58:17;99460.0;;;-8.1;95.4
28456;BME280;15682;56.742;38.866;2023-11-22T06:00:16;99460.0;;;-8.1;94.7
28456;BME280;15682;56.742;38.866;2023-11-22T06:02:16;99460.0;;;-8.1;94.6
28456;BME280;15682;56.742;38.866;2023-11-22T06:04:16;99460.0;;;-8.1;94.6
28456;BME280;15682;56.742;38.866;2023-11-22T06:06:15;99460.0;;;-8.1;94.6
28456;BME280;15682;56.742;38.866;2023-11-22T06:08:15;99460.0;;;-8.1;94.7
28456;BME280;15682;56.742;38.866;2023-11-22T06:10:15;99460.0;;;-8.1;94.7
28456;BME280;15682;56.742;38.866;2023-11-22T06:12:15;99460.0;;;-8.0;94.7
28456;BME280;15682;56.742;38.866;2023-11-22T06:14:14;99460.0;;;-8.0;94.7
28456;BME280;15682;56.742;38.866;2023-11-22T06:16:14;99460.0;;;-8.0;94.7
28456;BME280;15682;56.742;38.866;2023-11-22T06:18:14;99460.0;;;-7.9;94.7
28456;BME280;15682;56.742;38.866;2023-11-22T06:20:14;99460.0;;;-7.8;94.7
28456;BME280;15682;56.742;38.866;2023-11-22T06:22:14;99460.0;;;-7.8;94.7
28456;BME280;15682;56.742;38.866;2023-11-22T06:24:13;99460.0;;;-7.7;94.1
28456;BME280;15682;56.742;38.866;2023-11-22T06:26:13;99450.0;;;-7.7;94.1
28456;BME280;15682;56.742;38.866;2023-11-22T06:28:13;99450.0;;;-7.7;93.6
28456;BME280;15682;56.742;38.866;2023-11-22T06:30:13;99450.0;;;-7.7;93.6
28456;BME280;15682;56.742;38.866;2023-11-22T06:32:13;99450.0;;;-7.7;93.6
28456;BME280;15682;56.742;38.866;2023-11-22T06:34:12;99450.0;;;-7.8;93.7
28456;BME280;15682;56.742;38.866;2023-11-22T06:36:12;99450.0;;;-7.6;93.7
28456;BME280;15682;56.742;38.866;2023-11-22T06:38:12;99450.0;;;-7.6;93.9
28456;BME280;15682;56.742;38.866;2023-11-22T06:40:12;99450.0;;;-7.5;93.9
28456;BME280;15682;56.742;38.866;2023-11-22T06:42:11;99450.0;;;-7.7;93.9
28456;BME280;15682;56.742;38.866;2023-11-22T06:44:11;99450.0;;;-7.7;93.9
28456;BME280;15682;56.742;38.866;2023-11-22T06:46:11;99450.0;;;-7.5;93.9
28456;BME280;15682;56.742;38.866;2023-11-22T06:48:11;99450.0;;;-7.5;93.4
28456;BME280;15682;56.742;38.866;2023-11-22T06:50:11;99450.0;;;-7.5;92.8
28456;BME280;15682;56.742;38.866;2023-11-22T06:52:10;99450.0;;;-7.5;92.8
28456;BME280;15682;56.742;38.866;2023-11-22T06:54:10;99450.0;;;-7.5;92.8
28456;BME280;15682;56.742;38.866;2023-11-22T06:56:11;99450.0;;;-7.5;92.1
28456;BME280;15682;56.742;38.866;2023-11-22T06:58:10;99450.0;;;-7.6;91.9
28456;BME280;15682;56.742;38.866;2023-11-22T07:00:11;99450.0;;;-7.5;93.0
28456;BME280;15682;56.742;38.866;2023-11-22T07:02:09;99450.0;;;-7.3;92.3
28456;BME280;15682;56.742;38.866;2023-11-22T07:04:09;99450.0;;;-7.3;91.7
28456;BME280;15682;56.742;38.866;2023-11-22T07:06:09;99450.0;;;-7.3;91.7
28456;BME280;15682;56.742;38.866;2023-11-22T07:08:09;99450.0;;;-7.5;92.3
28456;BME280;15682;56.742;38.866;2023-11-22T07:10:09;99450.0;;;-7.5;92.3
28456;BME280;15682;56.742;38.866;2023-11-22T07:12:09;99450.0;;;-7.5;92.3
28456;BME280;15682;56.742;38.866;2023-11-22T07:14:08;99460.0;;;-7.4;92.3
28456;BME280;15682;56.742;38.866;2023-11-22T07:16:08;99460.0;;;-7.4;92.3
28456;BME280;15682;56.742;38.866;2023-11-22T07:18:08;99470.0;;;-7.4;92.3
28456;BME280;15682;56.742;38.866;2023-11-22T07:20:08;99470.0;;;-7.3;92.3
28456;BME280;15682;56.742;38.866;2023-11-22T07:22:07;99480.0;;;-7.3;92.3
28456;BME280;15682;56.742;38.866;2023-11-22T07:24:08;99480.0;;;-7.3;92.1
28456;BME280;15682;56.742;38.866;2023-11-22T07:26:07;99480.0;;;-7.3;92.1
28456;BME280;15682;56.742;38.866;2023-11-22T07:28:07;99480.0;;;-7.3;92.0
28456;BME280;15682;56.742;38.866;2023-11-22T07:30:08;99480.0;;;-7.3;92.0
28456;BME280;15682;56.742;38.866;2023-11-22T07:32:07;99480.0;;;-7.3;92.0
28456;BME280;15682;56.742;38.866;2023-11-22T07:34:06;99480.0;;;-7.3;92.0
28456;BME280;15682;56.742;38.866;2023-11-22T07:36:07;99480.0;;;-7.3;92.0
28456;BME280;15682;56.742;38.866;2023-11-22T07:38:06;99480.0;;;-7.3;92.1
28456;BME280;15682;56.742;38.866;2023-11-22T07:40:07;99480.0;;;-7.3;92.1
28456;BME280;15682;56.742;38.866;2023-11-22T07:42:06;99480.0;;;-7.1;92.1
28456;BME280;15682;56.742;38.866;2023-11-22T07:44:05;99480.0;;;-7.0;91.2
28456;BME280;15682;56.742;38.866;2023-11-22T07:46:06;99480.0;;;-7.1;91.7
28456;BME280;15682;56.742;38.866;2023-11-22T07:48:06;99480.0;;;-7.1;91.7
28456;BME280;15682;56.742;38.866;2023-11-22T07:50:06;99480.0;;;-7.1;91.0
28456;BME280;15682;56.742;38.866;2023-11-22T07:52:05;99500.0;;;-7.3;90.4
28456;BME280;15682;56.742;38.866;2023-11-22T07:54:05;99500.0;;;-7.2;90.4
28456;BME280;15682;56.742;38.866;2023-11-22T07:56:05;99500.0;;;-7.2;91.1
28456;BME280;15682;56.742;38.866;2023-11-22T07:58:04;99500.0;;;-7.1;91.1
28456;BME280;15682;56.742;38.866;2023-11-22T08:00:05;99500.0;;;-7.1;91.6
28456;BME280;15682;56.742;38.866;2023-11-22T08:02:04;99500.0;;;-7.1;90.7
28456;BME280;15682;56.742;38.866;2023-11-22T08:04:04;99500.0;;;-7.1;91.6
28456;BME280;15682;56.742;38.866;2023-11-22T08:06:03;99500.0;;;-7.1;91.6
28456;BME280;15682;56.742;38.866;2023-11-22T08:08:03;99500.0;;;-7.1;90.6
28456;BME280;15682;56.742;38.866;2023-11-22T08:10:04;99500.0;;;-7.0;90.6
28456;BME280;15682;56.742;38.866;2023-11-22T08:12:03;99500.0;;;-7.2;90.6
28456;BME280;15682;56.742;38.866;2023-11-22T08:14:03;99500.0;;;-7.2;90.6
28456;BME280;15682;56.742;38.866;2023-11-22T08:16:03;99500.0;;;-7.2;90.6
28456;BME280;15682;56.742;38.866;2023-11-22T08:18:02;99500.0;;;-7.2;90.8
28456;BME280;15682;56.742;38.866;2023-11-22T08:20:03;99510.0;;;-7.2;90.8
28456;BME280;15682;56.742;38.866;2023-11-22T08:22:02;99510.0;;;-7.0;90.8
28456;BME280;15682;56.742;38.866;2023-11-22T08:24:02;99510.0;;;-7.1;90.0
28456;BME280;15682;56.742;38.866;2023-11-22T08:26:01;99510.0;;;-7.1;90.0
28456;BME280;15682;56.742;38.866;2023-11-22T08:28:01;99510.0;;;-7.3;90.8
28456;BME280;15682;56.742;38.866;2023-11-22T08:30:01;99510.0;;;-7.2;90.8
28456;BME280;15682;56.742;38.866;2023-11-22T08:32:01;99510.0;;;-6.9;90.8
28456;BME280;15682;56.742;38.866;2023-11-22T08:34:01;99510.0;;;-6.9;90.3
28456;BME280;15682;56.742;38.866;2023-11-22T08:36:00;99510.0;;;-7.1;90.3
28456;BME280;15682;56.742;38.866;2023-11-22T08:38:00;99510.0;;;-7.1;89.6
28456;BME280;15682;56.742;38.866;2023-11-22T08:40:00;99510.0;;;-7.1;90.5
28456;BME280;15682;56.742;38.866;2023-11-22T08:42:00;99510.0;;;-7.1;90.5
28456;BME280;15682;56.742;38.866;2023-11-22T08:44:00;99510.0;;;-7.0;90.5
28456;BME280;15682;56.742;38.866;2023-11-22T08:46:00;99510.0;;;-7.0;89.3
28456;BME280;15682;56.742;38.866;2023-11-22T08:48:00;99510.0;;;-6.9;88.7
28456;BME280;15682;56.742;38.866;2023-11-22T08:49:59;99510.0;;;-6.9;88.7
28456;BME280;15682;56.742;38.866;2023-11-22T08:51:59;99510.0;;;-7.1;88.7
28456;BME280;15682;56.742;38.866;2023-11-22T08:53:59;99510.0;;;-7.0;89.3
28456;BME280;15682;56.742;38.866;2023-11-22T08:55:58;99500.0;;;-7.0;89.3
28456;BME280;15682;56.742;38.866;2023-11-22T08:57:58;99500.0;;;-6.9;88.7
28456;BME280;15682;56.742;38.866;2023-11-22T08:59:58;99500.0;;;-6.9;88.7
28456;BME280;15682;56.742;38.866;2023-11-22T09:01:58;99500.0;;;-6.9;88.7
28456;BME280;15682;56.742;38.866;2023-11-22T09:03:58;99500.0;;;-6.9;88.7
28456;BME280;15682;56.742;38.866;2023-11-22T09:05:57;99500.0;;;-6.9;87.7
28456;BME280;15682;56.742;38.866;2023-11-22T09:07:57;99500.0;;;-7.0;88.1
28456;BME280;15682;56.742;38.866;2023-11-22T09:09:57;99500.0;;;-7.0;88.1
28456;BME280;15682;56.742;38.866;2023-11-22T09:11:57;99490.0;;;-7.0;88.4
28456;BME280;15682;56.742;38.866;2023-11-22T09:13:57;99480.0;;;-7.2;88.4
28456;BME280;15682;56.742;38.866;2023-11-22T09:15:56;99480.0;;;-7.5;89.3
28456;BME280;15682;56.742;38.866;2023-11-22T09:17:56;99480.0;;;-7.5;89.3
28456;BME280;15682;56.742;38.866;2023-11-22T09:19:56;99480.0;;;-7.5;89.3
28456;BME280;15682;56.742;38.866;2023-11-22T09:21:56;99480.0;;;-7.3;88.8
28456;BME280;15682;56.742;38.866;2023-11-22T09:23:56;99480.0;;;-7.2;88.2
28456;BME280;15682;56.742;38.866;2023-11-22T09:25:55;99480.0;;;-7.3;87.8
28456;BME280;15682;56.742;38.866;2023-11-22T09:27:56;99480.0;;;-7.4;87.8
28456;BME280;15682;56.742;38.866;2023-11-22T09:29:55;99480.0;;;-7.3;87.8
28456;BME280;15682;56.742;38.866;2023-11-22T09:31:55;99480.0;;;-7.1;87.8
28456;BME280;15682;56.742;38.866;2023-11-22T09:33:54;99480.0;;;-7.2;87.8
28456;BME280;15682;56.742;38.866;2023-11-22T09:35:54;99480.0;;;-7.2;87.3
28456;BME280;15682;56.742;38.866;2023-11-22T09:37:54;99480.0;;;-7.2;87.8
28456;BME280;15682;56.742;38.866;2023-11-22T09:39:54;99480.0;;;-7.2;88.4
28456;BME280;15682;56.742;38.866;2023-11-22T09:41:54;99480.0;;;-7.3;88.4
28456;BME280;15682;56.742;38.866;2023-11-22T09:43:53;99480.0;;;-7.2;88.9
28456;BME280;15682;56.742;38.866;2023-11-22T09:45:53;99480.0;;;-7.2;88.9
28456;BME280;15682;56.742;38.866;2023-11-22T09:47:53;99480.0;;;-7.2;88.8
28456;BME280;15682;56.742;38.866;2023-11-22T09:49:55;99480.0;;;-7.2;88.8
28456;BME280;15682;56.742;38.866;2023-11-22T09:51:55;99480.0;;;-7.2;88.8
28456;BME280;15682;56.742;38.866;2023-11-22T09:53:55;99480.0;;;-7.2;88.8
28456;BME280;15682;56.742;38.866;2023-11-22T09:55:52;99480.0;;;-7.2;88.2
28456;BME280;15682;56.742;38.866;2023-11-22T09:57:52;99480.0;;;-7.3;87.8
28456;BME280;15682;56.742;38.866;2023-11-22T09:59:53;99480.0;;;-7.4;87.8
28456;BME280;15682;56.742;38.866;2023-11-22T10:01:52;99480.0;;;-7.6;87.8
28456;BME280;15682;56.742;38.866;2023-11-22T10:03:51;99480.0;;;-7.5;87.8
28456;BME280;15682;56.742;38.866;2023-11-22T10:05:51;99480.0;;;-7.5;87.8
28456;BME280;15682;56.742;38.866;2023-11-22T10:07:51;99490.0;;;-7.7;88.1
28456;BME280;15682;56.742;38.866;2023-11-22T10:09:51;99490.0;;;-7.7;88.1
28456;BME280;15682;56.742;38.866;2023-11-22T10:11:51;99500.0;;;-7.9;88.9
28456;BME280;15682;56.742;38.866;2023-11-22T10:13:51;99500.0;;;-7.7;88.9
28456;BME280;15682;56.742;38.866;2023-11-22T10:15:51;99500.0;;;-7.6;88.3
28456;BME280;15682;56.742;38.866;2023-11-22T10:17:55;99490.0;;;-7.7;87.8
28456;BME280;15682;56.742;38.866;2023-11-22T10:19:52;99490.0;;;-7.8;88.5
28456;BME280;15682;56.742;38.866;2023-11-22T10:22:02;99490.0;;;-7.6;88.2
28456;BME280;15682;56.742;38.866;2023-11-22T10:23:50;99490.0;;;-7.8;88.2
28456;BME280;15682;56.742;38.866;2023-11-22T10:25:50;99490.0;;;-8.0;88.2
28456;BME280;15682;56.742;38.866;2023-11-22T10:27:49;99490.0;;;-8.0;88.1
28456;BME280;15682;56.742;38.866;2023-11-22T10:29:48;99490.0;;;-8.2;87.4
28456;BME280;15682;56.742;38.866;2023-11-22T10:31:48;99490.0;;;-8.2;88.1
28456;BME280;15682;56.742;38.866;2023-11-22T10:33:49;99490.0;;;-8.1;88.1
28456;BME280;15682;56.742;38.866;2023-11-22T10:35:49;99490.0;;;-8.1;88.1
28456;BME280;15682;56.742;38.866;2023-11-22T10:37:48;99490.0;;;-8.1;88.5
28456;BME280;15682;56.742;38.866;2023-11-22T10:39:51;99490.0;;;-8.3;88.5
28456;BME280;15682;56.742;38.866;2023-11-22T10:41:47;99490.0;;;-8.2;88.5
28456;BME280;15682;56.742;38.866;2023-11-22T10:43:47;99490.0;;;-8.2;87.5
28456;BME280;15682;56.742;38.866;2023-11-22T10:45:47;99490.0;;;-8.2;88.2
28456;BME280;15682;56.742;38.866;2023-11-22T10:47:47;99490.0;;;-8.3;87.5
28456;BME280;15682;56.742;38.866;2023-11-22T10:49:46;99490.0;;;-8.1;87.5
28456;BME280;15682;56.742;38.866;2023-11-22T10:51:51;99490.0;;;-8.1;87.5